sensor_id;sensor_type;location;lat;lon;timestamp;P1;durP1;ratioP1;P2;durP2;ratioP2
35225;SDS011;21813;49.686;21.766;2023-01-24T00:00:37;35.35;;;15.55;;
35225;SDS011;21813;49.686;21.766;2023-01-24T00:03:15;36.88;;;16.38;;
35225;SDS011;21813;49.686;21.766;2023-01-24T00:05:42;35.83;;;15.18;;
35225;SDS011;21813;49.686;21.766;2023-01-24T00:08:11;40.20;;;16.83;;
35225;SDS011;21813;49.686;21.766;2023-01-24T00:10:38;37.85;;;16.23;;
35225;SDS011;21813;49.686;21.766;2023-01-24T00:13:05;36.05;;;14.88;;
35225;SDS011;21813;49.686;21.766;2023-01-24T00:15:32;32.97;;;15.52;;
35225;SDS011;21813;49.686;21.766;2023-01-24T00:17:59;35.17;;;15.93;;
35225;SDS011;21813;49.686;21.766;2023-01-24T00:20:25;37.03;;;16.65;;
35225;SDS011;21813;49.686;21.766;2023-01-24T00:22:52;42.58;;;18.05;;
35225;SDS011;21813;49.686;21.766;2023-01-24T00:25:17;38.38;;;16.95;;
35225;SDS011;21813;49.686;21.766;2023-01-24T00:27:45;42.17;;;16.25;;
35225;SDS011;21813;49.686;21.766;2023-01-24T00:30:10;34.92;;;16.73;;
35225;SDS011;21813;49.686;21.766;2023-01-24T00:32:37;35.78;;;17.45;;
35225;SDS011;21813;49.686;21.766;2023-01-24T00:35:03;37.50;;;16.77;;
35225;SDS011;21813;49.686;21.766;2023-01-24T00:37:30;38.95;;;16.55;;
35225;SDS011;21813;49.686;21.766;2023-01-24T00:39:55;34.78;;;16.55;;
35225;SDS011;21813;49.686;21.766;2023-01-24T00:42:21;35.22;;;16.27;;
35225;SDS011;21813;49.686;21.766;2023-01-24T00:44:47;31.35;;;15.07;;
35225;SDS011;21813;49.686;21.766;2023-01-24T00:47:14;32.97;;;15.68;;
35225;SDS011;21813;49.686;21.766;2023-01-24T00:49:39;38.45;;;16.05;;
35225;SDS011;21813;49.686;21.766;2023-01-24T00:52:07;37.17;;;15.85;;
35225;SDS011;21813;49.686;21.766;2023-01-24T00:54:32;32.95;;;15.52;;
35225;SDS011;21813;49.686;21.766;2023-01-24T00:56:59;33.80;;;16.05;;
35225;SDS011;21813;49.686;21.766;2023-01-24T00:59:25;37.45;;;17.30;;
35225;SDS011;21813;49.686;21.766;2023-01-24T01:01:53;36.03;;;15.60;;
35225;SDS011;21813;49.686;21.766;2023-01-24T01:04:19;32.67;;;16.33;;
35225;SDS011;21813;49.686;21.766;2023-01-24T01:06:46;35.90;;;15.90;;
35225;SDS011;21813;49.686;21.766;2023-01-24T01:09:11;34.35;;;15.50;;
35225;SDS011;21813;49.686;21.766;2023-01-24T01:11:39;30.88;;;14.80;;
35225;SDS011;21813;49.686;21.766;2023-01-24T01:14:07;36.97;;;14.52;;
35225;SDS011;21813;49.686;21.766;2023-01-24T01:16:35;32.42;;;15.00;;
35225;SDS011;21813;49.686;21.766;2023-01-24T01:19:03;32.53;;;14.35;;
35225;SDS011;21813;49.686;21.766;2023-01-24T01:21:30;29.08;;;15.20;;
35225;SDS011;21813;49.686;21.766;2023-01-24T01:23:56;33.85;;;15.07;;
35225;SDS011;21813;49.686;21.766;2023-01-24T01:26:23;29.88;;;14.25;;
35225;SDS011;21813;49.686;21.766;2023-01-24T01:28:49;32.35;;;14.88;;
35225;SDS011;21813;49.686;21.766;2023-01-24T01:31:15;32.15;;;14.52;;
35225;SDS011;21813;49.686;21.766;2023-01-24T01:33:44;34.90;;;16.52;;
35225;SDS011;21813;49.686;21.766;2023-01-24T01:36:11;45.95;;;16.92;;
35225;SDS011;21813;49.686;21.766;2023-01-24T01:38:37;40.28;;;15.95;;
35225;SDS011;21813;49.686;21.766;2023-01-24T01:41:06;35.50;;;15.88;;
35225;SDS011;21813;49.686;21.766;2023-01-24T01:43:32;38.83;;;15.27;;
35225;SDS011;21813;49.686;21.766;2023-01-24T01:46:14;35.83;;;16.42;;
35225;SDS011;21813;49.686;21.766;2023-01-24T01:48:49;42.22;;;17.13;;
35225;SDS011;21813;49.686;21.766;2023-01-24T01:51:22;35.08;;;16.55;;
35225;SDS011;21813;49.686;21.766;2023-01-24T01:54:00;36.70;;;16.80;;
35225;SDS011;21813;49.686;21.766;2023-01-24T01:56:36;39.90;;;18.17;;
35225;SDS011;21813;49.686;21.766;2023-01-24T01:59:28;46.13;;;16.88;;
35225;SDS011;21813;49.686;21.766;2023-01-24T02:01:58;40.80;;;18.75;;
35225;SDS011;21813;49.686;21.766;2023-01-24T02:04:28;38.17;;;16.83;;
35225;SDS011;21813;49.686;21.766;2023-01-24T02:07:06;40.22;;;17.23;;
35225;SDS011;21813;49.686;21.766;2023-01-24T02:09:37;38.15;;;17.42;;
35225;SDS011;21813;49.686;21.766;2023-01-24T02:12:10;39.35;;;16.92;;
35225;SDS011;21813;49.686;21.766;2023-01-24T02:14:39;45.75;;;18.90;;
35225;SDS011;21813;49.686;21.766;2023-01-24T02:17:24;38.33;;;16.52;;
35225;SDS011;21813;49.686;21.766;2023-01-24T02:20:14;45.05;;;16.80;;
35225;SDS011;21813;49.686;21.766;2023-01-24T02:28:31;40.00;;;16.48;;
35225;SDS011;21813;49.686;21.766;2023-01-24T02:30:58;38.97;;;17.02;;
35225;SDS011;21813;49.686;21.766;2023-01-24T02:33:26;38.05;;;16.75;;
35225;SDS011;21813;49.686;21.766;2023-01-24T02:36:28;39.30;;;15.85;;
35225;SDS011;21813;49.686;21.766;2023-01-24T02:41:28;36.67;;;15.73;;
35225;SDS011;21813;49.686;21.766;2023-01-24T02:44:01;36.15;;;15.05;;
35225;SDS011;21813;49.686;21.766;2023-01-24T02:46:30;42.25;;;17.48;;
35225;SDS011;21813;49.686;21.766;2023-01-24T02:51:31;41.45;;;16.42;;
35225;SDS011;21813;49.686;21.766;2023-01-24T02:54:17;44.15;;;16.63;;
35225;SDS011;21813;49.686;21.766;2023-01-24T02:56:43;44.03;;;16.27;;
35225;SDS011;21813;49.686;21.766;2023-01-24T02:59:28;43.30;;;16.50;;
35225;SDS011;21813;49.686;21.766;2023-01-24T03:01:55;39.15;;;17.20;;
35225;SDS011;21813;49.686;21.766;2023-01-24T03:04:22;44.20;;;16.90;;
35225;SDS011;21813;49.686;21.766;2023-01-24T03:06:48;46.78;;;18.35;;
35225;SDS011;21813;49.686;21.766;2023-01-24T03:09:18;42.65;;;16.73;;
35225;SDS011;21813;49.686;21.766;2023-01-24T03:11:47;47.65;;;16.77;;
35225;SDS011;21813;49.686;21.766;2023-01-24T03:20:41;44.58;;;17.15;;
35225;SDS011;21813;49.686;21.766;2023-01-24T03:23:30;44.13;;;15.85;;
35225;SDS011;21813;49.686;21.766;2023-01-24T03:26:26;42.85;;;17.30;;
35225;SDS011;21813;49.686;21.766;2023-01-24T03:29:41;46.28;;;17.58;;
35225;SDS011;21813;49.686;21.766;2023-01-24T03:32:50;51.75;;;18.63;;
35225;SDS011;21813;49.686;21.766;2023-01-24T03:36:03;49.90;;;17.60;;
35225;SDS011;21813;49.686;21.766;2023-01-24T03:38:43;43.25;;;17.73;;
35225;SDS011;21813;49.686;21.766;2023-01-24T03:41:30;42.38;;;17.70;;
35225;SDS011;21813;49.686;21.766;2023-01-24T04:12:07;52.20;;;18.25;;
35225;SDS011;21813;49.686;21.766;2023-01-24T04:15:31;44.33;;;17.90;;
35225;SDS011;21813;49.686;21.766;2023-01-24T04:17:59;47.15;;;18.70;;
35225;SDS011;21813;49.686;21.766;2023-01-24T04:20:27;43.25;;;17.88;;
35225;SDS011;21813;49.686;21.766;2023-01-24T04:22:55;56.03;;;18.95;;
35225;SDS011;21813;49.686;21.766;2023-01-24T04:25:21;46.97;;;18.10;;
35225;SDS011;21813;49.686;21.766;2023-01-24T04:27:56;49.80;;;18.88;;
35225;SDS011;21813;49.686;21.766;2023-01-24T04:30:33;51.97;;;19.70;;
35225;SDS011;21813;49.686;21.766;2023-01-24T04:33:00;58.63;;;22.35;;
35225;SDS011;21813;49.686;21.766;2023-01-24T04:35:27;48.60;;;19.27;;
35225;SDS011;21813;49.686;21.766;2023-01-24T04:38:02;55.25;;;20.27;;
35225;SDS011;21813;49.686;21.766;2023-01-24T04:40:28;49.97;;;19.83;;
35225;SDS011;21813;49.686;21.766;2023-01-24T04:42:56;53.50;;;21.42;;
35225;SDS011;21813;49.686;21.766;2023-01-24T04:45:28;53.22;;;19.60;;
35225;SDS011;21813;49.686;21.766;2023-01-24T04:48:08;55.15;;;21.10;;
35225;SDS011;21813;49.686;21.766;2023-01-24T04:50:34;52.38;;;21.08;;
35225;SDS011;21813;49.686;21.766;2023-01-24T04:53:01;55.92;;;21.10;;
35225;SDS011;21813;49.686;21.766;2023-01-24T04:55:27;59.03;;;20.60;;
35225;SDS011;21813;49.686;21.766;2023-01-24T04:57:54;54.60;;;19.52;;
35225;SDS011;21813;49.686;21.766;2023-01-24T05:00:20;43.47;;;17.85;;
35225;SDS011;21813;49.686;21.766;2023-01-24T05:02:49;53.90;;;19.67;;
35225;SDS011;21813;49.686;21.766;2023-01-24T05:05:16;54.63;;;19.67;;
35225;SDS011;21813;49.686;21.766;2023-01-24T05:07:42;51.85;;;19.00;;
35225;SDS011;21813;49.686;21.766;2023-01-24T05:10:08;52.50;;;19.77;;
35225;SDS011;21813;49.686;21.766;2023-01-24T05:12:36;51.60;;;19.90;;
35225;SDS011;21813;49.686;21.766;2023-01-24T05:15:01;53.53;;;20.73;;
35225;SDS011;21813;49.686;21.766;2023-01-24T05:17:28;54.33;;;18.65;;
35225;SDS011;21813;49.686;21.766;2023-01-24T05:19:54;57.00;;;19.85;;
35225;SDS011;21813;49.686;21.766;2023-01-24T05:22:20;57.78;;;20.10;;
35225;SDS011;21813;49.686;21.766;2023-01-24T05:25:01;49.20;;;17.65;;
35225;SDS011;21813;49.686;21.766;2023-01-24T05:28:15;49.63;;;16.98;;
35225;SDS011;21813;49.686;21.766;2023-01-24T05:36:53;52.35;;;16.88;;
35225;SDS011;21813;49.686;21.766;2023-01-24T05:39:21;56.40;;;18.98;;
35225;SDS011;21813;49.686;21.766;2023-01-24T05:41:47;59.05;;;17.95;;
35225;SDS011;21813;49.686;21.766;2023-01-24T05:44:15;50.03;;;18.08;;
35225;SDS011;21813;49.686;21.766;2023-01-24T05:46:40;49.08;;;17.65;;
35225;SDS011;21813;49.686;21.766;2023-01-24T05:49:13;56.83;;;18.85;;
35225;SDS011;21813;49.686;21.766;2023-01-24T05:54:26;52.75;;;17.65;;
35225;SDS011;21813;49.686;21.766;2023-01-24T05:56:51;51.85;;;17.52;;
35225;SDS011;21813;49.686;21.766;2023-01-24T05:59:19;52.25;;;18.00;;
35225;SDS011;21813;49.686;21.766;2023-01-24T06:01:45;49.28;;;17.58;;
35225;SDS011;21813;49.686;21.766;2023-01-24T06:04:12;55.60;;;19.02;;
35225;SDS011;21813;49.686;21.766;2023-01-24T06:06:37;54.63;;;17.50;;
35225;SDS011;21813;49.686;21.766;2023-01-24T06:09:06;53.83;;;18.92;;
35225;SDS011;21813;49.686;21.766;2023-01-24T06:11:34;46.25;;;16.77;;
35225;SDS011;21813;49.686;21.766;2023-01-24T06:14:03;43.53;;;16.63;;
35225;SDS011;21813;49.686;21.766;2023-01-24T06:16:34;45.70;;;15.32;;
35225;SDS011;21813;49.686;21.766;2023-01-24T06:19:05;44.83;;;16.83;;
35225;SDS011;21813;49.686;21.766;2023-01-24T06:24:15;43.35;;;14.90;;
35225;SDS011;21813;49.686;21.766;2023-01-24T06:26:44;39.25;;;15.77;;
35225;SDS011;21813;49.686;21.766;2023-01-24T06:29:12;35.95;;;14.18;;
35225;SDS011;21813;49.686;21.766;2023-01-24T06:31:51;41.42;;;14.45;;
35225;SDS011;21813;49.686;21.766;2023-01-24T06:37:41;36.78;;;13.70;;
35225;SDS011;21813;49.686;21.766;2023-01-24T06:40:12;31.42;;;12.98;;
35225;SDS011;21813;49.686;21.766;2023-01-24T06:42:42;28.88;;;12.50;;
35225;SDS011;21813;49.686;21.766;2023-01-24T06:47:43;30.67;;;13.30;;
35225;SDS011;21813;49.686;21.766;2023-01-24T06:52:52;31.23;;;13.93;;
35225;SDS011;21813;49.686;21.766;2023-01-24T06:55:33;33.38;;;13.70;;
35225;SDS011;21813;49.686;21.766;2023-01-24T06:58:00;31.05;;;14.32;;
35225;SDS011;21813;49.686;21.766;2023-01-24T07:00:28;33.90;;;14.43;;
35225;SDS011;21813;49.686;21.766;2023-01-24T07:03:00;40.90;;;14.98;;
35225;SDS011;21813;49.686;21.766;2023-01-24T07:05:35;35.58;;;15.27;;
35225;SDS011;21813;49.686;21.766;2023-01-24T07:08:02;32.45;;;15.88;;
35225;SDS011;21813;49.686;21.766;2023-01-24T07:10:29;31.48;;;15.40;;
35225;SDS011;21813;49.686;21.766;2023-01-24T07:12:55;34.13;;;14.98;;
35225;SDS011;21813;49.686;21.766;2023-01-24T07:15:21;34.88;;;15.13;;
35225;SDS011;21813;49.686;21.766;2023-01-24T07:17:50;33.97;;;14.48;;
35225;SDS011;21813;49.686;21.766;2023-01-24T07:20:19;35.30;;;13.15;;
35225;SDS011;21813;49.686;21.766;2023-01-24T07:22:48;30.50;;;14.52;;
35225;SDS011;21813;49.686;21.766;2023-01-24T07:25:17;39.78;;;16.08;;
35225;SDS011;21813;49.686;21.766;2023-01-24T07:27:45;32.15;;;15.30;;
35225;SDS011;21813;49.686;21.766;2023-01-24T07:30:13;31.90;;;15.13;;
35225;SDS011;21813;49.686;21.766;2023-01-24T07:32:39;37.83;;;15.35;;
35225;SDS011;21813;49.686;21.766;2023-01-24T07:35:05;31.67;;;15.35;;
35225;SDS011;21813;49.686;21.766;2023-01-24T07:37:35;33.30;;;15.13;;
35225;SDS011;21813;49.686;21.766;2023-01-24T07:40:07;37.10;;;14.85;;
35225;SDS011;21813;49.686;21.766;2023-01-24T07:42:33;34.97;;;15.63;;
35225;SDS011;21813;49.686;21.766;2023-01-24T07:45:03;39.50;;;16.70;;
35225;SDS011;21813;49.686;21.766;2023-01-24T07:47:30;37.92;;;16.70;;
35225;SDS011;21813;49.686;21.766;2023-01-24T07:49:59;44.00;;;19.35;;
35225;SDS011;21813;49.686;21.766;2023-01-24T07:52:24;42.28;;;19.55;;
35225;SDS011;21813;49.686;21.766;2023-01-24T07:54:53;35.45;;;16.58;;
35225;SDS011;21813;49.686;21.766;2023-01-24T07:57:19;42.85;;;21.05;;
35225;SDS011;21813;49.686;21.766;2023-01-24T07:59:47;41.28;;;19.92;;
35225;SDS011;21813;49.686;21.766;2023-01-24T08:10:39;33.33;;;16.33;;
35225;SDS011;21813;49.686;21.766;2023-01-24T08:13:10;32.45;;;14.85;;
35225;SDS011;21813;49.686;21.766;2023-01-24T08:15:42;31.55;;;15.48;;
35225;SDS011;21813;49.686;21.766;2023-01-24T08:18:21;26.15;;;13.43;;
35225;SDS011;21813;49.686;21.766;2023-01-24T08:20:48;31.80;;;14.73;;
35225;SDS011;21813;49.686;21.766;2023-01-24T08:23:14;25.17;;;12.57;;
35225;SDS011;21813;49.686;21.766;2023-01-24T08:25:40;24.25;;;13.52;;
35225;SDS011;21813;49.686;21.766;2023-01-24T08:28:07;24.58;;;13.32;;
35225;SDS011;21813;49.686;21.766;2023-01-24T08:33:09;23.45;;;12.80;;
35225;SDS011;21813;49.686;21.766;2023-01-24T08:35:43;22.58;;;12.85;;
35225;SDS011;21813;49.686;21.766;2023-01-24T08:38:09;23.20;;;12.75;;
35225;SDS011;21813;49.686;21.766;2023-01-24T08:40:46;18.10;;;10.60;;
35225;SDS011;21813;49.686;21.766;2023-01-24T08:43:53;18.33;;;11.63;;
35225;SDS011;21813;49.686;21.766;2023-01-24T08:51:45;15.68;;;10.15;;
35225;SDS011;21813;49.686;21.766;2023-01-24T08:54:14;17.42;;;11.48;;
35225;SDS011;21813;49.686;21.766;2023-01-24T08:56:40;19.73;;;11.68;;
35225;SDS011;21813;49.686;21.766;2023-01-24T08:59:08;17.50;;;10.70;;
35225;SDS011;21813;49.686;21.766;2023-01-24T09:01:34;17.77;;;10.18;;
35225;SDS011;21813;49.686;21.766;2023-01-24T09:04:01;15.20;;;10.05;;
35225;SDS011;21813;49.686;21.766;2023-01-24T09:06:29;14.40;;;9.55;;
35225;SDS011;21813;49.686;21.766;2023-01-24T09:08:57;15.45;;;9.50;;
35225;SDS011;21813;49.686;21.766;2023-01-24T09:11:22;16.17;;;9.48;;
35225;SDS011;21813;49.686;21.766;2023-01-24T09:13:50;16.27;;;8.93;;
35225;SDS011;21813;49.686;21.766;2023-01-24T09:16:15;12.90;;;9.60;;
35225;SDS011;21813;49.686;21.766;2023-01-24T09:18:53;16.33;;;9.88;;
35225;SDS011;21813;49.686;21.766;2023-01-24T09:21:20;11.15;;;7.57;;
35225;SDS011;21813;49.686;21.766;2023-01-24T09:23:48;13.18;;;8.73;;
35225;SDS011;21813;49.686;21.766;2023-01-24T09:26:13;12.82;;;8.55;;
35225;SDS011;21813;49.686;21.766;2023-01-24T09:28:41;12.85;;;8.00;;
35225;SDS011;21813;49.686;21.766;2023-01-24T09:31:07;13.45;;;8.57;;
35225;SDS011;21813;49.686;21.766;2023-01-24T09:33:36;13.10;;;8.30;;
35225;SDS011;21813;49.686;21.766;2023-01-24T09:36:02;13.70;;;8.63;;
35225;SDS011;21813;49.686;21.766;2023-01-24T09:38:29;12.30;;;8.57;;
35225;SDS011;21813;49.686;21.766;2023-01-24T09:41:08;12.35;;;7.68;;
35225;SDS011;21813;49.686;21.766;2023-01-24T09:46:27;12.02;;;6.60;;
35225;SDS011;21813;49.686;21.766;2023-01-24T09:49:18;11.57;;;7.80;;
35225;SDS011;21813;49.686;21.766;2023-01-24T09:51:53;13.25;;;7.55;;
35225;SDS011;21813;49.686;21.766;2023-01-24T09:55:05;14.07;;;8.80;;
35225;SDS011;21813;49.686;21.766;2023-01-24T09:57:24;12.60;;;7.88;;
35225;SDS011;21813;49.686;21.766;2023-01-24T10:00:18;13.35;;;9.38;;
35225;SDS011;21813;49.686;21.766;2023-01-24T10:02:49;13.00;;;8.15;;
35225;SDS011;21813;49.686;21.766;2023-01-24T10:05:15;15.73;;;9.25;;
35225;SDS011;21813;49.686;21.766;2023-01-24T10:07:53;12.90;;;8.40;;
35225;SDS011;21813;49.686;21.766;2023-01-24T10:10:48;13.40;;;8.98;;
35225;SDS011;21813;49.686;21.766;2023-01-24T10:13:36;15.65;;;10.52;;
35225;SDS011;21813;49.686;21.766;2023-01-24T10:25:50;18.30;;;11.18;;
35225;SDS011;21813;49.686;21.766;2023-01-24T10:31:08;13.65;;;8.85;;
35225;SDS011;21813;49.686;21.766;2023-01-24T10:33:44;11.00;;;8.45;;
35225;SDS011;21813;49.686;21.766;2023-01-24T10:36:18;9.98;;;7.22;;
35225;SDS011;21813;49.686;21.766;2023-01-24T10:39:13;10.30;;;7.07;;
35225;SDS011;21813;49.686;21.766;2023-01-24T10:41:39;12.10;;;8.13;;
35225;SDS011;21813;49.686;21.766;2023-01-24T10:44:25;17.02;;;9.25;;
35225;SDS011;21813;49.686;21.766;2023-01-24T10:49:29;16.25;;;10.45;;
35225;SDS011;21813;49.686;21.766;2023-01-24T10:55:00;14.50;;;10.45;;
35225;SDS011;21813;49.686;21.766;2023-01-24T11:03:18;13.20;;;9.07;;
35225;SDS011;21813;49.686;21.766;2023-01-24T11:05:49;13.48;;;9.07;;
35225;SDS011;21813;49.686;21.766;2023-01-24T11:14:23;17.95;;;11.20;;
35225;SDS011;21813;49.686;21.766;2023-01-24T11:16:53;14.75;;;9.50;;
35225;SDS011;21813;49.686;21.766;2023-01-24T11:42:09;13.70;;;8.73;;
35225;SDS011;21813;49.686;21.766;2023-01-24T11:47:20;12.57;;;8.15;;
35225;SDS011;21813;49.686;21.766;2023-01-24T11:53:05;15.30;;;8.48;;
35225;SDS011;21813;49.686;21.766;2023-01-24T11:56:05;12.20;;;7.50;;
35225;SDS011;21813;49.686;21.766;2023-01-24T12:08:43;18.85;;;10.00;;
35225;SDS011;21813;49.686;21.766;2023-01-24T12:30:04;18.67;;;10.90;;
35225;SDS011;21813;49.686;21.766;2023-01-24T12:32:36;18.65;;;11.23;;
35225;SDS011;21813;49.686;21.766;2023-01-24T12:50:52;19.85;;;11.52;;
35225;SDS011;21813;49.686;21.766;2023-01-24T12:53:24;20.50;;;11.77;;
35225;SDS011;21813;49.686;21.766;2023-01-24T12:58:48;26.08;;;11.75;;
35225;SDS011;21813;49.686;21.766;2023-01-24T13:12:23;27.42;;;14.70;;
35225;SDS011;21813;49.686;21.766;2023-01-24T13:17:48;29.50;;;15.48;;
35225;SDS011;21813;49.686;21.766;2023-01-24T13:26:04;24.90;;;14.57;;
35225;SDS011;21813;49.686;21.766;2023-01-24T13:46:13;26.45;;;13.60;;
35225;SDS011;21813;49.686;21.766;2023-01-24T14:03:22;23.48;;;13.77;;
35225;SDS011;21813;49.686;21.766;2023-01-24T14:17:48;24.05;;;12.43;;
35225;SDS011;21813;49.686;21.766;2023-01-24T14:23:02;26.30;;;13.55;;
35225;SDS011;21813;49.686;21.766;2023-01-24T14:31:55;24.88;;;13.52;;
35225;SDS011;21813;49.686;21.766;2023-01-24T14:34:29;24.70;;;13.23;;
35225;SDS011;21813;49.686;21.766;2023-01-24T14:37:19;22.15;;;12.75;;
35225;SDS011;21813;49.686;21.766;2023-01-24T14:39:48;27.77;;;14.82;;
35225;SDS011;21813;49.686;21.766;2023-01-24T14:45:02;22.00;;;12.15;;
35225;SDS011;21813;49.686;21.766;2023-01-24T14:47:30;21.98;;;12.18;;
35225;SDS011;21813;49.686;21.766;2023-01-24T14:49:58;22.75;;;11.43;;
35225;SDS011;21813;49.686;21.766;2023-01-24T14:52:32;20.73;;;11.90;;
35225;SDS011;21813;49.686;21.766;2023-01-24T15:00:59;23.92;;;14.32;;
35225;SDS011;21813;49.686;21.766;2023-01-24T15:03:32;22.52;;;12.75;;
35225;SDS011;21813;49.686;21.766;2023-01-24T15:06:32;27.58;;;14.50;;
35225;SDS011;21813;49.686;21.766;2023-01-24T15:09:18;26.65;;;15.63;;
35225;SDS011;21813;49.686;21.766;2023-01-24T15:17:56;30.05;;;17.05;;
35225;SDS011;21813;49.686;21.766;2023-01-24T15:20:56;32.88;;;18.17;;
35225;SDS011;21813;49.686;21.766;2023-01-24T15:23:37;30.17;;;16.55;;
35225;SDS011;21813;49.686;21.766;2023-01-24T15:26:34;27.27;;;14.60;;
35225;SDS011;21813;49.686;21.766;2023-01-24T15:29:40;29.83;;;15.80;;
35225;SDS011;21813;49.686;21.766;2023-01-24T15:35:26;24.10;;;13.07;;
35225;SDS011;21813;49.686;21.766;2023-01-24T15:46:55;26.95;;;13.65;;
35225;SDS011;21813;49.686;21.766;2023-01-24T15:50:18;29.88;;;15.38;;
35225;SDS011;21813;49.686;21.766;2023-01-24T15:55:54;28.83;;;15.63;;
35225;SDS011;21813;49.686;21.766;2023-01-24T15:58:25;30.80;;;16.38;;
35225;SDS011;21813;49.686;21.766;2023-01-24T16:00:59;41.75;;;20.30;;
35225;SDS011;21813;49.686;21.766;2023-01-24T16:03:37;36.55;;;18.00;;
35225;SDS011;21813;49.686;21.766;2023-01-24T16:06:41;34.58;;;17.70;;
35225;SDS011;21813;49.686;21.766;2023-01-24T16:09:22;30.00;;;14.50;;
35225;SDS011;21813;49.686;21.766;2023-01-24T16:12:09;30.80;;;15.55;;
35225;SDS011;21813;49.686;21.766;2023-01-24T16:14:53;22.30;;;12.77;;
35225;SDS011;21813;49.686;21.766;2023-01-24T16:17:21;28.02;;;13.48;;
35225;SDS011;21813;49.686;21.766;2023-01-24T16:19:49;25.95;;;13.60;;
35225;SDS011;21813;49.686;21.766;2023-01-24T16:22:15;29.80;;;16.50;;
35225;SDS011;21813;49.686;21.766;2023-01-24T16:24:42;29.48;;;16.02;;
35225;SDS011;21813;49.686;21.766;2023-01-24T16:27:17;27.92;;;15.52;;
35225;SDS011;21813;49.686;21.766;2023-01-24T16:29:43;28.42;;;15.07;;
35225;SDS011;21813;49.686;21.766;2023-01-24T16:32:20;30.05;;;16.35;;
35225;SDS011;21813;49.686;21.766;2023-01-24T16:34:49;33.60;;;17.23;;
35225;SDS011;21813;49.686;21.766;2023-01-24T16:40:18;33.17;;;17.05;;
35225;SDS011;21813;49.686;21.766;2023-01-24T16:42:50;35.72;;;18.25;;
35225;SDS011;21813;49.686;21.766;2023-01-24T16:45:19;35.30;;;17.63;;
35225;SDS011;21813;49.686;21.766;2023-01-24T16:47:46;30.27;;;15.82;;
35225;SDS011;21813;49.686;21.766;2023-01-24T16:50:14;30.85;;;15.98;;
35225;SDS011;21813;49.686;21.766;2023-01-24T16:52:41;32.72;;;17.23;;
35225;SDS011;21813;49.686;21.766;2023-01-24T16:55:09;40.38;;;19.67;;
35225;SDS011;21813;49.686;21.766;2023-01-24T16:57:35;43.63;;;20.38;;
35225;SDS011;21813;49.686;21.766;2023-01-24T17:00:09;56.13;;;26.20;;
35225;SDS011;21813;49.686;21.766;2023-01-24T17:14:00;24.55;;;14.43;;
35225;SDS011;21813;49.686;21.766;2023-01-24T17:16:27;21.95;;;13.18;;
35225;SDS011;21813;49.686;21.766;2023-01-24T17:22:04;23.23;;;12.30;;
35225;SDS011;21813;49.686;21.766;2023-01-24T17:27:24;20.83;;;11.75;;
35225;SDS011;21813;49.686;21.766;2023-01-24T17:29:50;18.48;;;10.82;;
35225;SDS011;21813;49.686;21.766;2023-01-24T17:32:16;20.65;;;11.73;;
35225;SDS011;21813;49.686;21.766;2023-01-24T17:34:45;19.92;;;11.43;;
35225;SDS011;21813;49.686;21.766;2023-01-24T17:37:11;25.13;;;10.90;;
35225;SDS011;21813;49.686;21.766;2023-01-24T17:39:44;23.75;;;12.63;;
35225;SDS011;21813;49.686;21.766;2023-01-24T17:42:18;26.30;;;12.27;;
35225;SDS011;21813;49.686;21.766;2023-01-24T17:44:45;29.50;;;13.07;;
35225;SDS011;21813;49.686;21.766;2023-01-24T17:47:11;30.98;;;14.32;;
35225;SDS011;21813;49.686;21.766;2023-01-24T17:49:37;27.83;;;15.10;;
35225;SDS011;21813;49.686;21.766;2023-01-24T17:52:04;27.08;;;13.88;;
35225;SDS011;21813;49.686;21.766;2023-01-24T17:54:30;22.73;;;13.07;;
35225;SDS011;21813;49.686;21.766;2023-01-24T17:56:56;26.50;;;13.38;;
35225;SDS011;21813;49.686;21.766;2023-01-24T17:59:22;20.45;;;12.13;;
35225;SDS011;21813;49.686;21.766;2023-01-24T18:01:48;21.35;;;12.20;;
35225;SDS011;21813;49.686;21.766;2023-01-24T18:04:15;22.20;;;11.35;;
35225;SDS011;21813;49.686;21.766;2023-01-24T18:06:41;25.70;;;11.63;;
35225;SDS011;21813;49.686;21.766;2023-01-24T18:09:09;24.48;;;13.25;;
35225;SDS011;21813;49.686;21.766;2023-01-24T18:11:35;31.92;;;15.48;;
35225;SDS011;21813;49.686;21.766;2023-01-24T18:14:02;25.38;;;14.27;;
35225;SDS011;21813;49.686;21.766;2023-01-24T18:16:28;26.23;;;15.15;;
35225;SDS011;21813;49.686;21.766;2023-01-24T18:18:55;30.73;;;15.65;;
35225;SDS011;21813;49.686;21.766;2023-01-24T18:21:22;25.15;;;13.77;;
35225;SDS011;21813;49.686;21.766;2023-01-24T18:23:57;29.02;;;14.77;;
35225;SDS011;21813;49.686;21.766;2023-01-24T18:26:40;28.60;;;14.02;;
35225;SDS011;21813;49.686;21.766;2023-01-24T18:29:20;31.10;;;14.87;;
35225;SDS011;21813;49.686;21.766;2023-01-24T18:31:47;29.33;;;14.90;;
35225;SDS011;21813;49.686;21.766;2023-01-24T18:34:17;32.00;;;15.52;;
35225;SDS011;21813;49.686;21.766;2023-01-24T18:36:48;32.53;;;16.17;;
35225;SDS011;21813;49.686;21.766;2023-01-24T18:39:14;28.35;;;15.23;;
35225;SDS011;21813;49.686;21.766;2023-01-24T18:41:41;30.30;;;14.13;;
35225;SDS011;21813;49.686;21.766;2023-01-24T18:44:10;28.38;;;13.77;;
35225;SDS011;21813;49.686;21.766;2023-01-24T18:46:54;28.02;;;15.70;;
35225;SDS011;21813;49.686;21.766;2023-01-24T18:49:20;30.05;;;13.50;;
35225;SDS011;21813;49.686;21.766;2023-01-24T18:51:47;26.63;;;15.00;;
35225;SDS011;21813;49.686;21.766;2023-01-24T18:54:18;23.05;;;13.35;;
35225;SDS011;21813;49.686;21.766;2023-01-24T18:56:45;27.80;;;15.25;;
35225;SDS011;21813;49.686;21.766;2023-01-24T18:59:17;32.10;;;16.42;;
35225;SDS011;21813;49.686;21.766;2023-01-24T19:01:47;33.72;;;17.77;;
35225;SDS011;21813;49.686;21.766;2023-01-24T19:04:22;33.67;;;18.23;;
35225;SDS011;21813;49.686;21.766;2023-01-24T19:06:49;34.40;;;18.15;;
35225;SDS011;21813;49.686;21.766;2023-01-24T19:09:15;35.72;;;18.73;;
35225;SDS011;21813;49.686;21.766;2023-01-24T19:14:31;33.30;;;17.73;;
35225;SDS011;21813;49.686;21.766;2023-01-24T19:17:02;28.85;;;15.27;;
35225;SDS011;21813;49.686;21.766;2023-01-24T19:19:39;28.95;;;14.95;;
35225;SDS011;21813;49.686;21.766;2023-01-24T19:22:19;28.90;;;14.52;;
35225;SDS011;21813;49.686;21.766;2023-01-24T19:46:59;18.98;;;10.80;;
35225;SDS011;21813;49.686;21.766;2023-01-24T19:49:31;19.30;;;9.65;;
35225;SDS011;21813;49.686;21.766;2023-01-24T19:51:57;22.63;;;11.93;;
35225;SDS011;21813;49.686;21.766;2023-01-24T19:54:32;22.65;;;12.63;;
35225;SDS011;21813;49.686;21.766;2023-01-24T19:57:00;25.15;;;13.50;;
35225;SDS011;21813;49.686;21.766;2023-01-24T20:17:20;17.00;;;10.23;;
35225;SDS011;21813;49.686;21.766;2023-01-24T20:19:48;19.63;;;10.30;;
35225;SDS011;21813;49.686;21.766;2023-01-24T20:22:13;18.48;;;10.75;;
35225;SDS011;21813;49.686;21.766;2023-01-24T20:24:40;17.00;;;9.38;;
35225;SDS011;21813;49.686;21.766;2023-01-24T20:27:06;19.67;;;10.02;;
35225;SDS011;21813;49.686;21.766;2023-01-24T20:29:32;14.23;;;7.65;;
35225;SDS011;21813;49.686;21.766;2023-01-24T21:01:52;12.80;;;7.45;;
35225;SDS011;21813;49.686;21.766;2023-01-24T21:04:34;13.40;;;6.90;;